sensor_id;sensor_type;location;lat;lon;timestamp;P1;durP1;ratioP1;P2;durP2;ratioP2
5085;SDS011;4715;51.660;7.082;2024-03-29T00:00:16;0.73;;;0.73;;
5085;SDS011;4715;51.660;7.082;2024-03-29T00:02:37;1.77;;;1.17;;
5085;SDS011;4715;51.660;7.082;2024-03-29T00:04:58;2.00;;;1.10;;
5085;SDS011;4715;51.660;7.082;2024-03-29T00:07:19;1.43;;;1.00;;
5085;SDS011;4715;51.660;7.082;2024-03-29T00:09:40;1.30;;;1.00;;
5085;SDS011;4715;51.660;7.082;2024-03-29T00:12:03;1.20;;;1.10;;
5085;SDS011;4715;51.660;7.082;2024-03-29T00:14:24;1.40;;;0.97;;
5085;SDS011;4715;51.660;7.082;2024-03-29T00:16:46;1.63;;;1.37;;
5085;SDS011;4715;51.660;7.082;2024-03-29T00:19:07;1.27;;;1.13;;
5085;SDS011;4715;51.660;7.082;2024-03-29T00:21:28;1.33;;;1.10;;
5085;SDS011;4715;51.660;7.082;2024-03-29T00:23:49;1.20;;;1.00;;
5085;SDS011;4715;51.660;7.082;2024-03-29T00:26:10;1.23;;;1.13;;
5085;SDS011;4715;51.660;7.082;2024-03-29T00:28:32;1.30;;;1.20;;
5085;SDS011;4715;51.660;7.082;2024-03-29T00:30:53;2.07;;;1.10;;
5085;SDS011;4715;51.660;7.082;2024-03-29T00:33:14;2.40;;;1.17;;
5085;SDS011;4715;51.660;7.082;2024-03-29T00:35:35;1.73;;;0.90;;
5085;SDS011;4715;51.660;7.082;2024-03-29T00:37:56;0.97;;;0.73;;
5085;SDS011;4715;51.660;7.082;2024-03-29T00:40:17;3.10;;;1.23;;
5085;SDS011;4715;51.660;7.082;2024-03-29T00:42:38;1.40;;;1.00;;
5085;SDS011;4715;51.660;7.082;2024-03-29T00:45:01;2.77;;;1.13;;
5085;SDS011;4715;51.660;7.082;2024-03-29T00:47:21;1.40;;;1.30;;
5085;SDS011;4715;51.660;7.082;2024-03-29T00:49:42;1.40;;;1.00;;
5085;SDS011;4715;51.660;7.082;2024-03-29T00:52:03;1.40;;;1.30;;
5085;SDS011;4715;51.660;7.082;2024-03-29T00:54:24;7.03;;;1.40;;
5085;SDS011;4715;51.660;7.082;2024-03-29T00:56:45;3.27;;;1.80;;
5085;SDS011;4715;51.660;7.082;2024-03-29T00:59:06;2.33;;;1.30;;
5085;SDS011;4715;51.660;7.082;2024-03-29T01:01:29;3.57;;;1.20;;
5085;SDS011;4715;51.660;7.082;2024-03-29T01:03:49;3.70;;;1.00;;
5085;SDS011;4715;51.660;7.082;2024-03-29T01:06:10;1.73;;;1.10;;
5085;SDS011;4715;51.660;7.082;2024-03-29T01:08:31;4.20;;;1.03;;
5085;SDS011;4715;51.660;7.082;2024-03-29T01:10:52;3.40;;;1.00;;
5085;SDS011;4715;51.660;7.082;2024-03-29T01:13:13;1.37;;;1.00;;
5085;SDS011;4715;51.660;7.082;2024-03-29T01:15:34;2.77;;;1.00;;
5085;SDS011;4715;51.660;7.082;2024-03-29T01:17:57;3.77;;;1.00;;
5085;SDS011;4715;51.660;7.082;2024-03-29T01:20:17;3.40;;;1.00;;
5085;SDS011;4715;51.660;7.082;2024-03-29T01:22:39;2.77;;;1.20;;
5085;SDS011;4715;51.660;7.082;2024-03-29T01:25:00;1.80;;;0.90;;
5085;SDS011;4715;51.660;7.082;2024-03-29T01:27:21;2.90;;;1.07;;
5085;SDS011;4715;51.660;7.082;2024-03-29T01:29:43;2.77;;;1.13;;
5085;SDS011;4715;51.660;7.082;2024-03-29T01:32:04;1.97;;;1.00;;
5085;SDS011;4715;51.660;7.082;2024-03-29T01:34:27;3.43;;;1.03;;
5085;SDS011;4715;51.660;7.082;2024-03-29T01:36:48;3.37;;;0.90;;
5085;SDS011;4715;51.660;7.082;2024-03-29T01:39:09;2.40;;;1.07;;
5085;SDS011;4715;51.660;7.082;2024-03-29T01:41:30;1.87;;;1.63;;
5085;SDS011;4715;51.660;7.082;2024-03-29T01:43:52;2.17;;;0.90;;
5085;SDS011;4715;51.660;7.082;2024-03-29T01:46:14;1.10;;;1.10;;
5085;SDS011;4715;51.660;7.082;2024-03-29T01:48:36;0.80;;;0.80;;
5085;SDS011;4715;51.660;7.082;2024-03-29T01:51:00;3.13;;;0.93;;
5085;SDS011;4715;51.660;7.082;2024-03-29T01:53:22;7.33;;;1.30;;
5085;SDS011;4715;51.660;7.082;2024-03-29T01:55:45;0.90;;;0.90;;
5085;SDS011;4715;51.660;7.082;2024-03-29T01:58:10;0.80;;;0.80;;
5085;SDS011;4715;51.660;7.082;2024-03-29T02:00:33;1.30;;;1.20;;
5085;SDS011;4715;51.660;7.082;2024-03-29T02:03:00;1.03;;;0.93;;
5085;SDS011;4715;51.660;7.082;2024-03-29T02:05:24;0.97;;;0.90;;
5085;SDS011;4715;51.660;7.082;2024-03-29T02:07:47;1.30;;;1.20;;
5085;SDS011;4715;51.660;7.082;2024-03-29T02:10:09;1.70;;;1.10;;
5085;SDS011;4715;51.660;7.082;2024-03-29T02:12:33;1.10;;;1.00;;
5085;SDS011;4715;51.660;7.082;2024-03-29T02:14:54;2.57;;;1.03;;
5085;SDS011;4715;51.660;7.082;2024-03-29T02:17:18;1.10;;;1.00;;
5085;SDS011;4715;51.660;7.082;2024-03-29T02:19:40;1.70;;;1.10;;
5085;SDS011;4715;51.660;7.082;2024-03-29T02:22:07;1.37;;;1.10;;
5085;SDS011;4715;51.660;7.082;2024-03-29T02:24:36;2.40;;;1.00;;
5085;SDS011;4715;51.660;7.082;2024-03-29T02:27:03;1.10;;;1.00;;
5085;SDS011;4715;51.660;7.082;2024-03-29T02:29:25;2.70;;;1.33;;
5085;SDS011;4715;51.660;7.082;2024-03-29T02:31:48;1.17;;;0.90;;
5085;SDS011;4715;51.660;7.082;2024-03-29T02:34:14;3.73;;;1.47;;
5085;SDS011;4715;51.660;7.082;2024-03-29T02:36:38;1.00;;;1.00;;
5085;SDS011;4715;51.660;7.082;2024-03-29T02:39:02;1.27;;;1.17;;
5085;SDS011;4715;51.660;7.082;2024-03-29T02:41:30;0.90;;;0.90;;
5085;SDS011;4715;51.660;7.082;2024-03-29T02:43:53;0.80;;;0.80;;
5085;SDS011;4715;51.660;7.082;2024-03-29T02:46:18;1.23;;;1.03;;
5085;SDS011;4715;51.660;7.082;2024-03-29T02:48:39;2.30;;;1.00;;
5085;SDS011;4715;51.660;7.082;2024-03-29T02:51:03;1.40;;;0.93;;
5085;SDS011;4715;51.660;7.082;2024-03-29T02:53:25;3.53;;;0.90;;
5085;SDS011;4715;51.660;7.082;2024-03-29T02:55:48;1.90;;;1.07;;
5085;SDS011;4715;51.660;7.082;2024-03-29T02:58:11;2.07;;;1.13;;
5085;SDS011;4715;51.660;7.082;2024-03-29T03:00:33;0.67;;;0.67;;
5085;SDS011;4715;51.660;7.082;2024-03-29T03:02:54;2.00;;;1.00;;
5085;SDS011;4715;51.660;7.082;2024-03-29T03:05:16;0.70;;;0.70;;
5085;SDS011;4715;51.660;7.082;2024-03-29T03:07:40;1.10;;;1.00;;
5085;SDS011;4715;51.660;7.082;2024-03-29T03:10:20;2.10;;;1.10;;
5085;SDS011;4715;51.660;7.082;2024-03-29T03:12:59;1.60;;;1.03;;
5085;SDS011;4715;51.660;7.082;2024-03-29T03:15:23;2.30;;;0.90;;
5085;SDS011;4715;51.660;7.082;2024-03-29T03:17:45;1.07;;;0.77;;
5085;SDS011;4715;51.660;7.082;2024-03-29T03:20:06;1.80;;;1.00;;
5085;SDS011;4715;51.660;7.082;2024-03-29T03:22:30;0.80;;;0.80;;
5085;SDS011;4715;51.660;7.082;2024-03-29T03:24:51;2.43;;;1.23;;
5085;SDS011;4715;51.660;7.082;2024-03-29T03:27:13;1.10;;;1.00;;
5085;SDS011;4715;51.660;7.082;2024-03-29T03:29:35;1.83;;;0.93;;
5085;SDS011;4715;51.660;7.082;2024-03-29T03:31:59;1.00;;;1.00;;
5085;SDS011;4715;51.660;7.082;2024-03-29T03:34:20;2.80;;;0.90;;
5085;SDS011;4715;51.660;7.082;2024-03-29T03:36:42;1.30;;;0.97;;
5085;SDS011;4715;51.660;7.082;2024-03-29T03:39:03;0.83;;;0.80;;
5085;SDS011;4715;51.660;7.082;2024-03-29T03:41:24;2.10;;;1.10;;
5085;SDS011;4715;51.660;7.082;2024-03-29T03:43:45;1.27;;;1.00;;
5085;SDS011;4715;51.660;7.082;2024-03-29T03:46:07;3.30;;;1.07;;
5085;SDS011;4715;51.660;7.082;2024-03-29T03:48:29;3.33;;;1.00;;
5085;SDS011;4715;51.660;7.082;2024-03-29T03:50:51;1.50;;;0.97;;
5085;SDS011;4715;51.660;7.082;2024-03-29T03:53:12;1.53;;;1.03;;
5085;SDS011;4715;51.660;7.082;2024-03-29T03:55:35;0.80;;;0.80;;
5085;SDS011;4715;51.660;7.082;2024-03-29T03:57:57;4.87;;;1.17;;
5085;SDS011;4715;51.660;7.082;2024-03-29T04:00:19;1.80;;;1.03;;
5085;SDS011;4715;51.660;7.082;2024-03-29T04:02:41;1.20;;;1.07;;
5085;SDS011;4715;51.660;7.082;2024-03-29T04:05:06;1.47;;;0.90;;
5085;SDS011;4715;51.660;7.082;2024-03-29T04:07:27;0.80;;;0.80;;
5085;SDS011;4715;51.660;7.082;2024-03-29T04:09:50;0.80;;;0.80;;
5085;SDS011;4715;51.660;7.082;2024-03-29T04:12:12;1.23;;;0.90;;
5085;SDS011;4715;51.660;7.082;2024-03-29T04:14:34;1.90;;;0.80;;
5085;SDS011;4715;51.660;7.082;2024-03-29T04:16:55;3.37;;;0.93;;
5085;SDS011;4715;51.660;7.082;2024-03-29T04:19:18;1.57;;;1.10;;
5085;SDS011;4715;51.660;7.082;2024-03-29T04:21:41;1.70;;;1.00;;
5085;SDS011;4715;51.660;7.082;2024-03-29T04:24:03;1.77;;;1.30;;
5085;SDS011;4715;51.660;7.082;2024-03-29T04:26:27;1.23;;;0.90;;
5085;SDS011;4715;51.660;7.082;2024-03-29T04:28:50;2.80;;;2.60;;
5085;SDS011;4715;51.660;7.082;2024-03-29T04:31:10;0.70;;;0.70;;
5085;SDS011;4715;51.660;7.082;2024-03-29T04:33:34;0.83;;;0.70;;
5085;SDS011;4715;51.660;7.082;2024-03-29T04:35:56;0.83;;;0.70;;
5085;SDS011;4715;51.660;7.082;2024-03-29T04:38:21;1.60;;;0.80;;
5085;SDS011;4715;51.660;7.082;2024-03-29T04:40:43;0.80;;;0.80;;
5085;SDS011;4715;51.660;7.082;2024-03-29T04:43:05;3.73;;;1.00;;
5085;SDS011;4715;51.660;7.082;2024-03-29T04:45:27;0.70;;;0.70;;
5085;SDS011;4715;51.660;7.082;2024-03-29T04:47:50;0.97;;;0.80;;
5085;SDS011;4715;51.660;7.082;2024-03-29T04:50:12;0.77;;;0.77;;
5085;SDS011;4715;51.660;7.082;2024-03-29T04:52:35;0.77;;;0.77;;
5085;SDS011;4715;51.660;7.082;2024-03-29T04:54:58;1.77;;;0.90;;
5085;SDS011;4715;51.660;7.082;2024-03-29T04:57:20;2.10;;;0.97;;
5085;SDS011;4715;51.660;7.082;2024-03-29T04:59:42;0.70;;;0.70;;
5085;SDS011;4715;51.660;7.082;2024-03-29T05:02:04;1.30;;;0.80;;
5085;SDS011;4715;51.660;7.082;2024-03-29T05:04:26;1.10;;;1.10;;
5085;SDS011;4715;51.660;7.082;2024-03-29T05:06:48;1.00;;;0.90;;
5085;SDS011;4715;51.660;7.082;2024-03-29T05:09:10;0.63;;;0.63;;
5085;SDS011;4715;51.660;7.082;2024-03-29T05:11:34;1.10;;;1.00;;
5085;SDS011;4715;51.660;7.082;2024-03-29T05:13:55;1.10;;;1.10;;
5085;SDS011;4715;51.660;7.082;2024-03-29T05:16:20;0.80;;;0.80;;
5085;SDS011;4715;51.660;7.082;2024-03-29T05:18:42;0.80;;;0.73;;
5085;SDS011;4715;51.660;7.082;2024-03-29T05:21:04;0.60;;;0.60;;
5085;SDS011;4715;51.660;7.082;2024-03-29T05:23:26;0.90;;;0.80;;
5085;SDS011;4715;51.660;7.082;2024-03-29T05:25:48;0.80;;;0.80;;
5085;SDS011;4715;51.660;7.082;2024-03-29T05:28:13;0.70;;;0.70;;
5085;SDS011;4715;51.660;7.082;2024-03-29T05:30:34;5.03;;;0.80;;
5085;SDS011;4715;51.660;7.082;2024-03-29T05:32:56;0.70;;;0.70;;
5085;SDS011;4715;51.660;7.082;2024-03-29T05:35:18;0.70;;;0.70;;
5085;SDS011;4715;51.660;7.082;2024-03-29T05:37:40;2.30;;;0.83;;
5085;SDS011;4715;51.660;7.082;2024-03-29T05:40:02;0.80;;;0.80;;
5085;SDS011;4715;51.660;7.082;2024-03-29T05:42:26;0.80;;;0.80;;
5085;SDS011;4715;51.660;7.082;2024-03-29T05:44:50;0.60;;;0.60;;
5085;SDS011;4715;51.660;7.082;2024-03-29T05:47:11;0.77;;;0.63;;
5085;SDS011;4715;51.660;7.082;2024-03-29T05:49:33;1.57;;;0.83;;
5085;SDS011;4715;51.660;7.082;2024-03-29T05:51:55;0.80;;;0.60;;
5085;SDS011;4715;51.660;7.082;2024-03-29T05:54:17;0.70;;;0.70;;
5085;SDS011;4715;51.660;7.082;2024-03-29T05:56:39;0.63;;;0.63;;
5085;SDS011;4715;51.660;7.082;2024-03-29T05:59:00;0.70;;;0.70;;
5085;SDS011;4715;51.660;7.082;2024-03-29T06:01:24;0.80;;;0.80;;
5085;SDS011;4715;51.660;7.082;2024-03-29T06:03:48;1.43;;;0.77;;
5085;SDS011;4715;51.660;7.082;2024-03-29T06:06:12;0.80;;;0.80;;
5085;SDS011;4715;51.660;7.082;2024-03-29T06:08:37;1.00;;;0.90;;
5085;SDS011;4715;51.660;7.082;2024-03-29T06:11:02;0.80;;;0.80;;
5085;SDS011;4715;51.660;7.082;2024-03-29T06:13:26;1.10;;;1.00;;
5085;SDS011;4715;51.660;7.082;2024-03-29T06:16:05;1.23;;;1.10;;
5085;SDS011;4715;51.660;7.082;2024-03-29T06:18:46;1.60;;;1.50;;
5085;SDS011;4715;51.660;7.082;2024-03-29T06:21:10;2.50;;;1.20;;
5085;SDS011;4715;51.660;7.082;2024-03-29T06:23:32;0.90;;;0.90;;
5085;SDS011;4715;51.660;7.082;2024-03-29T06:25:55;1.10;;;1.00;;
5085;SDS011;4715;51.660;7.082;2024-03-29T06:28:17;1.20;;;1.10;;
5085;SDS011;4715;51.660;7.082;2024-03-29T06:30:40;2.40;;;1.20;;
5085;SDS011;4715;51.660;7.082;2024-03-29T06:33:03;1.40;;;0.80;;
5085;SDS011;4715;51.660;7.082;2024-03-29T06:35:31;2.17;;;1.10;;
5085;SDS011;4715;51.660;7.082;2024-03-29T06:37:53;1.47;;;0.90;;
5085;SDS011;4715;51.660;7.082;2024-03-29T06:40:15;1.40;;;0.90;;
5085;SDS011;4715;51.660;7.082;2024-03-29T06:42:38;1.00;;;1.00;;
5085;SDS011;4715;51.660;7.082;2024-03-29T06:45:00;1.83;;;1.00;;
5085;SDS011;4715;51.660;7.082;2024-03-29T06:47:22;1.40;;;1.00;;
5085;SDS011;4715;51.660;7.082;2024-03-29T06:49:44;1.57;;;1.47;;
5085;SDS011;4715;51.660;7.082;2024-03-29T06:52:10;1.20;;;1.10;;
5085;SDS011;4715;51.660;7.082;2024-03-29T06:54:32;1.80;;;1.10;;
5085;SDS011;4715;51.660;7.082;2024-03-29T06:56:54;1.80;;;1.40;;
5085;SDS011;4715;51.660;7.082;2024-03-29T06:59:18;1.27;;;1.17;;
5085;SDS011;4715;51.660;7.082;2024-03-29T07:01:40;1.83;;;1.20;;
5085;SDS011;4715;51.660;7.082;2024-03-29T07:04:02;1.33;;;1.10;;
5085;SDS011;4715;51.660;7.082;2024-03-29T07:06:24;1.57;;;1.30;;
5085;SDS011;4715;51.660;7.082;2024-03-29T07:08:47;1.87;;;1.10;;
5085;SDS011;4715;51.660;7.082;2024-03-29T07:11:09;1.13;;;0.90;;
5085;SDS011;4715;51.660;7.082;2024-03-29T07:13:33;1.20;;;1.10;;
5085;SDS011;4715;51.660;7.082;2024-03-29T07:15:55;1.20;;;1.10;;
5085;SDS011;4715;51.660;7.082;2024-03-29T07:18:17;1.30;;;1.20;;
5085;SDS011;4715;51.660;7.082;2024-03-29T07:20:41;1.07;;;1.07;;
5085;SDS011;4715;51.660;7.082;2024-03-29T07:23:03;1.10;;;1.10;;
5085;SDS011;4715;51.660;7.082;2024-03-29T07:25:26;1.50;;;1.40;;
5085;SDS011;4715;51.660;7.082;2024-03-29T07:27:48;1.60;;;1.23;;
5085;SDS011;4715;51.660;7.082;2024-03-29T07:30:11;1.40;;;1.20;;
5085;SDS011;4715;51.660;7.082;2024-03-29T07:32:39;1.20;;;1.10;;
5085;SDS011;4715;51.660;7.082;2024-03-29T07:35:01;1.77;;;1.47;;
5085;SDS011;4715;51.660;7.082;2024-03-29T07:37:25;1.43;;;1.33;;
5085;SDS011;4715;51.660;7.082;2024-03-29T07:39:48;1.07;;;1.00;;
5085;SDS011;4715;51.660;7.082;2024-03-29T07:42:11;2.00;;;1.30;;
5085;SDS011;4715;51.660;7.082;2024-03-29T07:44:33;1.57;;;1.13;;
5085;SDS011;4715;51.660;7.082;2024-03-29T07:46:55;1.20;;;1.10;;
5085;SDS011;4715;51.660;7.082;2024-03-29T07:49:17;1.83;;;1.50;;
5085;SDS011;4715;51.660;7.082;2024-03-29T07:51:41;3.90;;;1.53;;
5085;SDS011;4715;51.660;7.082;2024-03-29T07:54:03;1.10;;;1.00;;
5085;SDS011;4715;51.660;7.082;2024-03-29T07:56:26;1.90;;;1.10;;
5085;SDS011;4715;51.660;7.082;2024-03-29T07:58:51;1.47;;;1.37;;
5085;SDS011;4715;51.660;7.082;2024-03-29T08:01:17;1.20;;;1.00;;
5085;SDS011;4715;51.660;7.082;2024-03-29T08:03:39;1.63;;;1.53;;
5085;SDS011;4715;51.660;7.082;2024-03-29T08:06:04;1.40;;;1.30;;
5085;SDS011;4715;51.660;7.082;2024-03-29T08:08:26;2.77;;;1.53;;
5085;SDS011;4715;51.660;7.082;2024-03-29T08:10:49;1.17;;;1.07;;
5085;SDS011;4715;51.660;7.082;2024-03-29T08:13:12;1.70;;;1.40;;
5085;SDS011;4715;51.660;7.082;2024-03-29T08:15:41;2.03;;;1.50;;
5085;SDS011;4715;51.660;7.082;2024-03-29T08:18:04;1.80;;;1.43;;
5085;SDS011;4715;51.660;7.082;2024-03-29T08:20:26;2.73;;;1.67;;
5085;SDS011;4715;51.660;7.082;2024-03-29T08:22:49;2.63;;;1.67;;
5085;SDS011;4715;51.660;7.082;2024-03-29T08:25:13;3.27;;;1.97;;
5085;SDS011;4715;51.660;7.082;2024-03-29T08:27:35;3.10;;;2.10;;
5085;SDS011;4715;51.660;7.082;2024-03-29T08:29:59;2.00;;;1.67;;
5085;SDS011;4715;51.660;7.082;2024-03-29T08:32:22;1.97;;;1.50;;
5085;SDS011;4715;51.660;7.082;2024-03-29T08:34:47;1.60;;;1.40;;
5085;SDS011;4715;51.660;7.082;2024-03-29T08:37:09;1.80;;;1.70;;
5085;SDS011;4715;51.660;7.082;2024-03-29T08:39:31;1.77;;;1.60;;
5085;SDS011;4715;51.660;7.082;2024-03-29T08:41:54;1.63;;;1.40;;
5085;SDS011;4715;51.660;7.082;2024-03-29T08:44:16;1.90;;;1.80;;
5085;SDS011;4715;51.660;7.082;2024-03-29T08:46:38;2.33;;;1.53;;
5085;SDS011;4715;51.660;7.082;2024-03-29T08:49:01;3.13;;;2.27;;
5085;SDS011;4715;51.660;7.082;2024-03-29T08:51:24;4.37;;;1.70;;
5085;SDS011;4715;51.660;7.082;2024-03-29T08:53:46;1.40;;;1.30;;
5085;SDS011;4715;51.660;7.082;2024-03-29T08:56:08;1.40;;;1.30;;
5085;SDS011;4715;51.660;7.082;2024-03-29T08:58:29;1.43;;;1.37;;
5085;SDS011;4715;51.660;7.082;2024-03-29T09:00:52;2.70;;;1.60;;
5085;SDS011;4715;51.660;7.082;2024-03-29T09:03:15;2.47;;;1.60;;
5085;SDS011;4715;51.660;7.082;2024-03-29T09:05:41;2.90;;;1.67;;
5085;SDS011;4715;51.660;7.082;2024-03-29T09:08:05;2.00;;;1.40;;
5085;SDS011;4715;51.660;7.082;2024-03-29T09:10:28;3.13;;;1.50;;
5085;SDS011;4715;51.660;7.082;2024-03-29T09:12:50;2.10;;;1.40;;
5085;SDS011;4715;51.660;7.082;2024-03-29T09:15:14;1.73;;;1.63;;
5085;SDS011;4715;51.660;7.082;2024-03-29T09:17:37;2.70;;;1.77;;
5085;SDS011;4715;51.660;7.082;2024-03-29T09:19:59;4.13;;;2.10;;
5085;SDS011;4715;51.660;7.082;2024-03-29T09:22:23;1.70;;;1.60;;
5085;SDS011;4715;51.660;7.082;2024-03-29T09:24:45;2.03;;;1.40;;
5085;SDS011;4715;51.660;7.082;2024-03-29T09:27:07;1.20;;;1.10;;
5085;SDS011;4715;51.660;7.082;2024-03-29T09:29:29;5.10;;;1.50;;
5085;SDS011;4715;51.660;7.082;2024-03-29T09:31:51;2.53;;;1.47;;
5085;SDS011;4715;51.660;7.082;2024-03-29T09:34:13;2.43;;;2.33;;
5085;SDS011;4715;51.660;7.082;2024-03-29T09:36:35;2.20;;;1.90;;
5085;SDS011;4715;51.660;7.082;2024-03-29T09:39:00;3.10;;;1.87;;
5085;SDS011;4715;51.660;7.082;2024-03-29T09:41:24;3.37;;;2.60;;
5085;SDS011;4715;51.660;7.082;2024-03-29T09:43:49;2.57;;;2.37;;
5085;SDS011;4715;51.660;7.082;2024-03-29T09:46:15;3.00;;;2.70;;
5085;SDS011;4715;51.660;7.082;2024-03-29T09:48:37;4.43;;;2.60;;
5085;SDS011;4715;51.660;7.082;2024-03-29T09:51:03;2.23;;;2.03;;
5085;SDS011;4715;51.660;7.082;2024-03-29T09:53:26;2.43;;;1.90;;
5085;SDS011;4715;51.660;7.082;2024-03-29T09:55:55;2.27;;;2.07;;
5085;SDS011;4715;51.660;7.082;2024-03-29T09:58:17;7.10;;;1.87;;
5085;SDS011;4715;51.660;7.082;2024-03-29T10:00:39;2.57;;;2.37;;
5085;SDS011;4715;51.660;7.082;2024-03-29T10:03:02;1.87;;;1.63;;
5085;SDS011;4715;51.660;7.082;2024-03-29T10:05:27;2.15;;;1.95;;
5085;SDS011;4715;51.660;7.082;2024-03-29T10:07:53;1.43;;;1.40;;
5085;SDS011;4715;51.660;7.082;2024-03-29T10:10:16;1.47;;;1.37;;
5085;SDS011;4715;51.660;7.082;2024-03-29T10:12:40;5.20;;;1.70;;
5085;SDS011;4715;51.660;7.082;2024-03-29T10:15:03;1.63;;;1.53;;
5085;SDS011;4715;51.660;7.082;2024-03-29T10:17:29;1.70;;;1.60;;
5085;SDS011;4715;51.660;7.082;2024-03-29T10:19:51;2.17;;;2.07;;
5085;SDS011;4715;51.660;7.082;2024-03-29T10:22:13;3.10;;;2.90;;
5085;SDS011;4715;51.660;7.082;2024-03-29T10:24:37;3.40;;;2.57;;
5085;SDS011;4715;51.660;7.082;2024-03-29T10:26:58;3.47;;;2.70;;
5085;SDS011;4715;51.660;7.082;2024-03-29T10:29:28;3.23;;;2.90;;
5085;SDS011;4715;51.660;7.082;2024-03-29T10:31:50;3.00;;;2.60;;
5085;SDS011;4715;51.660;7.082;2024-03-29T10:34:12;6.07;;;3.00;;
5085;SDS011;4715;51.660;7.082;2024-03-29T10:36:36;2.93;;;2.60;;
5085;SDS011;4715;51.660;7.082;2024-03-29T10:38:59;2.10;;;1.90;;
5085;SDS011;4715;51.660;7.082;2024-03-29T10:41:21;4.60;;;3.03;;
5085;SDS011;4715;51.660;7.082;2024-03-29T10:43:44;2.60;;;2.40;;
5085;SDS011;4715;51.660;7.082;2024-03-29T10:46:10;2.10;;;1.90;;
5085;SDS011;4715;51.660;7.082;2024-03-29T10:48:32;2.63;;;2.43;;
5085;SDS011;4715;51.660;7.082;2024-03-29T10:50:56;1.90;;;1.80;;
5085;SDS011;4715;51.660;7.082;2024-03-29T10:53:19;2.13;;;2.03;;
5085;SDS011;4715;51.660;7.082;2024-03-29T10:55:45;2.80;;;2.37;;
5085;SDS011;4715;51.660;7.082;2024-03-29T10:58:08;2.57;;;2.20;;
5085;SDS011;4715;51.660;7.082;2024-03-29T11:00:36;3.53;;;2.13;;
5085;SDS011;4715;51.660;7.082;2024-03-29T11:03:08;2.50;;;2.30;;
5085;SDS011;4715;51.660;7.082;2024-03-29T11:05:36;2.20;;;2.00;;
5085;SDS011;4715;51.660;7.082;2024-03-29T11:08:02;2.57;;;2.40;;
5085;SDS011;4715;51.660;7.082;2024-03-29T11:10:28;3.70;;;3.40;;
5085;SDS011;4715;51.660;7.082;2024-03-29T11:12:59;3.50;;;3.20;;
5085;SDS011;4715;51.660;7.082;2024-03-29T11:15:27;4.17;;;2.50;;
5085;SDS011;4715;51.660;7.082;2024-03-29T11:17:51;2.20;;;2.00;;
5085;SDS011;4715;51.660;7.082;2024-03-29T11:20:16;2.83;;;2.13;;
5085;SDS011;4715;51.660;7.082;2024-03-29T11:22:44;2.60;;;2.40;;
5085;SDS011;4715;51.660;7.082;2024-03-29T11:25:06;2.00;;;1.90;;
5085;SDS011;4715;51.660;7.082;2024-03-29T11:27:39;2.10;;;1.90;;
5085;SDS011;4715;51.660;7.082;2024-03-29T11:30:03;4.83;;;1.90;;
5085;SDS011;4715;51.660;7.082;2024-03-29T11:32:36;1.90;;;1.80;;
5085;SDS011;4715;51.660;7.082;2024-03-29T11:34:59;2.17;;;1.70;;
5085;SDS011;4715;51.660;7.082;2024-03-29T11:37:28;2.40;;;1.80;;
5085;SDS011;4715;51.660;7.082;2024-03-29T11:39:51;3.00;;;1.83;;
5085;SDS011;4715;51.660;7.082;2024-03-29T11:42:16;1.77;;;1.63;;
5085;SDS011;4715;51.660;7.082;2024-03-29T11:44:39;1.57;;;1.47;;
5085;SDS011;4715;51.660;7.082;2024-03-29T11:47:04;1.70;;;1.60;;
5085;SDS011;4715;51.660;7.082;2024-03-29T11:49:30;1.77;;;1.67;;
5085;SDS011;4715;51.660;7.082;2024-03-29T11:52:01;1.60;;;1.50;;
5085;SDS011;4715;51.660;7.082;2024-03-29T11:54:26;2.80;;;1.93;;
5085;SDS011;4715;51.660;7.082;2024-03-29T11:56:48;2.10;;;2.00;;
5085;SDS011;4715;51.660;7.082;2024-03-29T11:59:12;3.63;;;2.03;;
5085;SDS011;4715;51.660;7.082;2024-03-29T12:01:36;4.70;;;1.77;;
5085;SDS011;4715;51.660;7.082;2024-03-29T12:03:59;1.73;;;1.63;;
5085;SDS011;4715;51.660;7.082;2024-03-29T12:06:20;1.80;;;1.70;;
5085;SDS011;4715;51.660;7.082;2024-03-29T12:08:45;1.50;;;1.40;;
5085;SDS011;4715;51.660;7.082;2024-03-29T12:11:09;3.20;;;1.80;;
5085;SDS011;4715;51.660;7.082;2024-03-29T12:13:31;1.70;;;1.60;;
5085;SDS011;4715;51.660;7.082;2024-03-29T12:15:54;1.80;;;1.70;;
5085;SDS011;4715;51.660;7.082;2024-03-29T12:18:16;1.83;;;1.73;;
5085;SDS011;4715;51.660;7.082;2024-03-29T12:20:38;1.93;;;1.80;;
5085;SDS011;4715;51.660;7.082;2024-03-29T12:23:00;2.30;;;1.73;;
5085;SDS011;4715;51.660;7.082;2024-03-29T12:25:23;1.97;;;1.63;;
5085;SDS011;4715;51.660;7.082;2024-03-29T12:27:49;2.60;;;1.50;;
5085;SDS011;4715;51.660;7.082;2024-03-29T12:30:11;6.20;;;2.93;;
5085;SDS011;4715;51.660;7.082;2024-03-29T12:32:35;2.07;;;1.97;;
5085;SDS011;4715;51.660;7.082;2024-03-29T12:35:05;1.53;;;1.43;;
5085;SDS011;4715;51.660;7.082;2024-03-29T12:37:31;1.27;;;1.17;;
5085;SDS011;4715;51.660;7.082;2024-03-29T12:39:53;1.70;;;1.60;;
5085;SDS011;4715;51.660;7.082;2024-03-29T12:42:16;1.50;;;1.40;;
5085;SDS011;4715;51.660;7.082;2024-03-29T12:44:39;1.60;;;1.50;;
5085;SDS011;4715;51.660;7.082;2024-03-29T12:47:01;1.50;;;1.40;;
5085;SDS011;4715;51.660;7.082;2024-03-29T12:49:24;1.60;;;1.50;;
5085;SDS011;4715;51.660;7.082;2024-03-29T12:51:46;2.10;;;1.40;;
5085;SDS011;4715;51.660;7.082;2024-03-29T12:54:08;1.63;;;1.50;;
5085;SDS011;4715;51.660;7.082;2024-03-29T12:56:30;2.40;;;2.10;;
5085;SDS011;4715;51.660;7.082;2024-03-29T12:58:52;1.53;;;1.43;;
5085;SDS011;4715;51.660;7.082;2024-03-29T13:01:16;1.57;;;1.47;;
5085;SDS011;4715;51.660;7.082;2024-03-29T13:03:38;1.70;;;1.60;;
5085;SDS011;4715;51.660;7.082;2024-03-29T13:06:01;2.07;;;1.90;;
5085;SDS011;4715;51.660;7.082;2024-03-29T13:08:23;1.60;;;1.47;;
5085;SDS011;4715;51.660;7.082;2024-03-29T13:10:45;1.33;;;1.23;;
5085;SDS011;4715;51.660;7.082;2024-03-29T13:13:07;1.40;;;1.27;;
5085;SDS011;4715;51.660;7.082;2024-03-29T13:15:31;1.83;;;1.40;;
5085;SDS011;4715;51.660;7.082;2024-03-29T13:17:56;1.40;;;1.30;;
5085;SDS011;4715;51.660;7.082;2024-03-29T13:20:19;1.47;;;1.20;;
5085;SDS011;4715;51.660;7.082;2024-03-29T13:22:45;1.57;;;1.47;;
5085;SDS011;4715;51.660;7.082;2024-03-29T13:25:09;2.10;;;1.70;;
5085;SDS011;4715;51.660;7.082;2024-03-29T13:27:30;1.70;;;1.50;;
5085;SDS011;4715;51.660;7.082;2024-03-29T13:29:52;1.40;;;1.30;;
5085;SDS011;4715;51.660;7.082;2024-03-29T13:32:14;2.57;;;2.37;;
5085;SDS011;4715;51.660;7.082;2024-03-29T13:34:38;5.03;;;1.73;;
5085;SDS011;4715;51.660;7.082;2024-03-29T13:37:00;2.20;;;1.53;;
5085;SDS011;4715;51.660;7.082;2024-03-29T13:39:24;1.50;;;1.27;;
5085;SDS011;4715;51.660;7.082;2024-03-29T13:41:46;2.40;;;1.40;;
5085;SDS011;4715;51.660;7.082;2024-03-29T13:44:08;1.33;;;1.13;;
5085;SDS011;4715;51.660;7.082;2024-03-29T13:46:30;3.40;;;1.70;;
5085;SDS011;4715;51.660;7.082;2024-03-29T13:48:52;1.80;;;1.70;;
5085;SDS011;4715;51.660;7.082;2024-03-29T13:51:17;4.07;;;1.40;;
5085;SDS011;4715;51.660;7.082;2024-03-29T13:53:40;4.10;;;1.07;;
5085;SDS011;4715;51.660;7.082;2024-03-29T13:56:03;1.50;;;1.40;;
5085;SDS011;4715;51.660;7.082;2024-03-29T13:58:27;1.20;;;1.10;;
5085;SDS011;4715;51.660;7.082;2024-03-29T14:00:51;1.37;;;1.03;;
5085;SDS011;4715;51.660;7.082;2024-03-29T14:03:19;3.37;;;1.43;;
5085;SDS011;4715;51.660;7.082;2024-03-29T14:05:42;1.40;;;1.30;;
5085;SDS011;4715;51.660;7.082;2024-03-29T14:08:07;1.97;;;1.47;;
5085;SDS011;4715;51.660;7.082;2024-03-29T14:10:29;1.40;;;1.30;;
5085;SDS011;4715;51.660;7.082;2024-03-29T14:12:56;3.83;;;1.23;;
5085;SDS011;4715;51.660;7.082;2024-03-29T14:15:19;1.17;;;1.07;;
5085;SDS011;4715;51.660;7.082;2024-03-29T14:17:41;1.07;;;1.00;;
5085;SDS011;4715;51.660;7.082;2024-03-29T14:20:03;1.50;;;1.20;;
5085;SDS011;4715;51.660;7.082;2024-03-29T14:22:26;1.30;;;1.20;;
5085;SDS011;4715;51.660;7.082;2024-03-29T14:24:52;2.10;;;1.97;;
5085;SDS011;4715;51.660;7.082;2024-03-29T14:27:16;1.37;;;1.03;;
5085;SDS011;4715;51.660;7.082;2024-03-29T14:29:38;0.90;;;0.90;;
5085;SDS011;4715;51.660;7.082;2024-03-29T14:32:00;1.60;;;0.90;;
5085;SDS011;4715;51.660;7.082;2024-03-29T14:34:23;1.10;;;1.00;;
5085;SDS011;4715;51.660;7.082;2024-03-29T14:36:45;1.10;;;1.10;;
5085;SDS011;4715;51.660;7.082;2024-03-29T14:39:07;1.20;;;1.10;;
5085;SDS011;4715;51.660;7.082;2024-03-29T14:41:34;2.63;;;1.10;;
5085;SDS011;4715;51.660;7.082;2024-03-29T14:43:59;1.03;;;0.93;;
5085;SDS011;4715;51.660;7.082;2024-03-29T14:46:21;1.10;;;1.00;;
5085;SDS011;4715;51.660;7.082;2024-03-29T14:48:43;2.43;;;1.83;;